createdAt,value
2017-12-19T00:00:46.371Z,0
2017-12-19T00:01:48.185Z,0
2017-12-19T00:02:50.043Z,0
2017-12-19T00:03:51.904Z,0
2017-12-19T00:04:53.786Z,0
2017-12-19T00:06:07.909Z,0
2017-12-19T00:07:09.770Z,0
2017-12-19T00:08:11.628Z,0
2017-12-19T00:09:13.507Z,0
2017-12-19T00:10:15.304Z,0
2017-12-19T00:11:17.098Z,0
2017-12-19T00:12:18.982Z,0
2017-12-19T00:13:20.861Z,0
2017-12-19T00:14:22.727Z,0
2017-12-19T00:15:36.877Z,0
2017-12-19T00:16:38.760Z,0
2017-12-19T00:17:40.638Z,0
2017-12-19T00:18:42.498Z,0
2017-12-19T00:19:44.298Z,0
2017-12-19T00:20:46.111Z,0
2017-12-19T00:21:47.992Z,0
2017-12-19T00:22:49.850Z,0
2017-12-19T00:23:51.707Z,0
2017-12-19T00:25:05.838Z,0
2017-12-19T00:26:07.699Z,0
2017-12-19T00:27:09.555Z,0
2017-12-19T00:28:11.440Z,0
2017-12-19T00:29:13.254Z,0
2017-12-19T00:30:15.049Z,0
2017-12-19T00:31:16.933Z,0
2017-12-19T00:32:18.790Z,0
2017-12-19T00:33:20.655Z,0
2017-12-19T00:34:34.854Z,0
2017-12-19T00:35:36.725Z,0
2017-12-19T00:36:38.604Z,0
2017-12-19T00:37:40.463Z,0
2017-12-19T00:38:42.260Z,0
2017-12-19T00:39:44.055Z,0
2017-12-19T00:40:45.935Z,0
2017-12-19T00:41:47.822Z,0
2017-12-19T00:42:49.702Z,0
2017-12-19T00:44:03.903Z,0
2017-12-19T00:45:05.784Z,0
2017-12-19T00:46:07.662Z,0
2017-12-19T00:47:09.526Z,0
2017-12-19T00:48:11.342Z,0
2017-12-19T00:49:13.132Z,0
2017-12-19T00:50:14.997Z,0
2017-12-19T00:51:16.859Z,0
2017-12-19T00:52:18.739Z,0
2017-12-19T00:53:32.919Z,0
2017-12-19T00:54:34.798Z,0
2017-12-19T00:55:36.656Z,0
2017-12-19T00:56:38.516Z,0
2017-12-19T00:57:40.313Z,0
2017-12-19T00:58:42.131Z,0
2017-12-19T00:59:44.009Z,0
2017-12-19T01:00:45.871Z,0
2017-12-19T01:01:47.731Z,0
2017-12-19T01:03:01.930Z,0
2017-12-19T01:04:03.813Z,0
2017-12-19T01:05:05.671Z,0
2017-12-19T01:06:07.530Z,0
2017-12-19T01:07:09.318Z,0
2017-12-19T01:08:11.113Z,0
2017-12-19T01:09:12.968Z,0
2017-12-19T01:10:14.835Z,0
2017-12-19T01:11:16.717Z,0
2017-12-19T01:12:30.916Z,0
2017-12-19T01:13:32.796Z,0
2017-12-19T01:14:34.657Z,0
2017-12-19T01:15:36.519Z,0
2017-12-19T01:16:38.332Z,0
2017-12-19T01:17:40.143Z,0
2017-12-19T01:18:42.012Z,0
2017-12-19T01:19:43.892Z,0
2017-12-19T01:20:45.781Z,0
2017-12-19T01:21:59.977Z,0
2017-12-19T01:23:01.834Z,0
2017-12-19T01:24:03.684Z,0
2017-12-19T01:25:05.547Z,0
2017-12-19T01:26:07.344Z,0
2017-12-19T01:27:09.155Z,0
2017-12-19T01:28:11.011Z,0
2017-12-19T01:29:12.873Z,0
2017-12-19T01:30:14.737Z,0
2017-12-19T01:31:28.913Z,0
2017-12-19T01:32:30.772Z,0
2017-12-19T01:33:32.632Z,0
2017-12-19T01:34:34.510Z,0
2017-12-19T01:35:36.309Z,0
2017-12-19T01:36:38.102Z,0
2017-12-19T01:37:39.961Z,0
2017-12-19T01:38:41.848Z,0
2017-12-19T01:39:43.731Z,0
2017-12-19T01:40:57.883Z,0
2017-12-19T01:41:59.763Z,0
2017-12-19T01:43:01.624Z,0
2017-12-19T01:44:03.482Z,0
2017-12-19T01:45:05.279Z,0
2017-12-19T01:46:07.074Z,0
2017-12-19T01:47:08.955Z,0
2017-12-19T01:48:10.839Z,0
2017-12-19T01:49:12.701Z,0
2017-12-19T01:50:26.847Z,0
2017-12-19T01:51:28.710Z,0
2017-12-19T01:52:30.568Z,0
2017-12-19T01:53:32.451Z,0
2017-12-19T01:54:34.246Z,0
2017-12-19T01:55:36.062Z,0
2017-12-19T01:56:37.947Z,0
2017-12-19T01:57:39.831Z,0
2017-12-19T01:58:41.673Z,0
2017-12-19T01:59:55.869Z,0
2017-12-19T02:00:57.734Z,0
2017-12-19T02:01:59.588Z,0
2017-12-19T02:03:01.471Z,0
2017-12-19T02:04:03.290Z,0
2017-12-19T02:05:05.100Z,0
2017-12-19T02:06:06.961Z,0
2017-12-19T02:07:08.842Z,0
2017-12-19T02:08:10.722Z,0
2017-12-19T02:09:24.897Z,0
2017-12-19T02:10:26.751Z,0
2017-12-19T02:11:28.607Z,0
2017-12-19T02:12:30.495Z,0
2017-12-19T02:13:32.309Z,0
2017-12-19T02:14:34.130Z,0
2017-12-19T02:15:36.006Z,0
2017-12-19T02:16:37.861Z,0
2017-12-19T02:17:39.745Z,0
2017-12-19T02:18:53.866Z,0
2017-12-19T02:19:55.727Z,0
2017-12-19T02:20:57.579Z,0
2017-12-19T02:21:59.434Z,0
2017-12-19T02:23:01.231Z,0
2017-12-19T02:24:03.028Z,0
2017-12-19T02:25:04.909Z,0
2017-12-19T02:26:06.789Z,0
2017-12-19T02:27:08.648Z,0
2017-12-19T02:28:22.821Z,0
2017-12-19T02:29:24.675Z,0
2017-12-19T02:30:26.529Z,0
2017-12-19T02:31:28.414Z,0
2017-12-19T02:32:30.206Z,0
2017-12-19T02:33:32.022Z,0
2017-12-19T02:34:33.883Z,0
2017-12-19T02:35:35.762Z,0
2017-12-19T02:36:37.640Z,0
2017-12-19T02:37:51.765Z,0
2017-12-19T02:38:53.622Z,0
2017-12-19T02:39:55.478Z,0
2017-12-19T02:40:57.335Z,0
2017-12-19T02:41:59.133Z,0
2017-12-19T02:43:00.942Z,0
2017-12-19T02:44:02.818Z,0
2017-12-19T02:45:04.676Z,0
2017-12-19T02:46:06.540Z,0
2017-12-19T02:47:20.689Z,0
2017-12-19T02:48:22.573Z,0
2017-12-19T02:49:24.450Z,0
2017-12-19T02:50:26.307Z,0
2017-12-19T02:51:28.103Z,0
2017-12-19T02:52:29.901Z,0
2017-12-19T02:53:31.774Z,0
2017-12-19T02:54:33.640Z,0
2017-12-19T02:55:35.519Z,0
2017-12-19T02:56:49.665Z,0
2017-12-19T02:57:51.520Z,0
2017-12-19T02:58:53.374Z,0
2017-12-19T02:59:55.235Z,0
2017-12-19T03:00:57.055Z,0
2017-12-19T03:01:58.867Z,0
2017-12-19T03:03:00.725Z,0
2017-12-19T03:04:02.600Z,0
2017-12-19T03:05:04.458Z,0
2017-12-19T03:06:18.633Z,0
2017-12-19T03:07:20.489Z,0
2017-12-19T03:08:22.338Z,0
2017-12-19T03:09:24.196Z,0
2017-12-19T03:10:25.991Z,0
2017-12-19T03:11:27.808Z,0
2017-12-19T03:12:29.665Z,0
2017-12-19T03:13:31.546Z,0
2017-12-19T03:14:33.426Z,0
2017-12-19T03:15:47.553Z,0
2017-12-19T03:16:49.432Z,0
2017-12-19T03:17:51.313Z,0
2017-12-19T03:18:53.197Z,0
2017-12-19T03:19:55.011Z,0
2017-12-19T03:20:56.826Z,0
2017-12-19T03:21:58.685Z,0
2017-12-19T03:23:00.565Z,0
2017-12-19T03:24:02.424Z,0
2017-12-19T03:25:16.569Z,0
2017-12-19T03:26:18.427Z,0
2017-12-19T03:27:20.321Z,0
2017-12-19T03:28:22.135Z,0
2017-12-19T03:29:23.928Z,0
2017-12-19T03:30:25.724Z,0
2017-12-19T03:31:27.682Z,0
2017-12-19T03:32:29.511Z,0
2017-12-19T03:33:31.372Z,0
2017-12-19T03:34:45.523Z,0
2017-12-19T03:35:47.400Z,0
2017-12-19T03:36:49.273Z,0
2017-12-19T03:37:51.134Z,0
2017-12-19T03:38:52.952Z,0
2017-12-19T03:39:54.767Z,0
2017-12-19T03:40:56.651Z,0
2017-12-19T03:41:58.524Z,0
2017-12-19T03:43:00.402Z,0
2017-12-19T03:44:14.546Z,0
2017-12-19T03:45:16.395Z,0
2017-12-19T03:46:18.251Z,0
2017-12-19T03:47:20.109Z,0
2017-12-19T03:48:21.910Z,0
2017-12-19T03:49:23.700Z,0
2017-12-19T03:50:25.578Z,0
2017-12-19T03:51:27.423Z,0
2017-12-19T03:52:29.294Z,0
2017-12-19T03:53:43.444Z,0
2017-12-19T03:54:45.325Z,0
2017-12-19T03:55:47.202Z,0
2017-12-19T03:56:49.084Z,0
2017-12-19T03:57:50.872Z,0
2017-12-19T03:58:52.670Z,0
2017-12-19T03:59:54.551Z,0
2017-12-19T04:00:56.433Z,0
2017-12-19T04:01:58.315Z,0
2017-12-19T04:03:12.455Z,0
2017-12-19T04:04:14.317Z,0
2017-12-19T04:05:16.197Z,0
2017-12-19T04:06:18.084Z,0
2017-12-19T04:07:19.894Z,0
2017-12-19T04:08:21.699Z,0
2017-12-19T04:09:23.578Z,0
2017-12-19T04:10:25.438Z,0
2017-12-19T04:11:27.320Z,0
2017-12-19T04:12:41.473Z,0
2017-12-19T04:13:43.345Z,0
2017-12-19T04:14:45.203Z,0
2017-12-19T04:15:47.068Z,0
2017-12-19T04:16:48.862Z,0
2017-12-19T04:17:50.654Z,0
2017-12-19T04:18:52.513Z,0
2017-12-19T04:19:54.393Z,0
2017-12-19T04:20:56.251Z,0
2017-12-19T04:22:10.396Z,0
2017-12-19T04:23:12.256Z,0
2017-12-19T04:24:14.107Z,0
2017-12-19T04:25:15.973Z,0
2017-12-19T04:26:17.762Z,0
2017-12-19T04:27:19.579Z,0
2017-12-19T04:28:21.478Z,0
2017-12-19T04:29:23.356Z,0
2017-12-19T04:30:25.223Z,0
2017-12-19T04:31:39.373Z,0
2017-12-19T04:32:41.287Z,0
2017-12-19T04:33:43.133Z,0
2017-12-19T04:34:45.011Z,0
2017-12-19T04:35:46.830Z,0
2017-12-19T04:36:48.644Z,0
2017-12-19T04:37:50.529Z,0
2017-12-19T04:38:52.412Z,0
2017-12-19T04:39:54.293Z,0
2017-12-19T04:41:08.437Z,0
2017-12-19T04:42:10.295Z,0
2017-12-19T04:43:12.182Z,0
2017-12-19T04:44:14.059Z,0
2017-12-19T04:45:15.872Z,0
2017-12-19T04:46:17.668Z,0
2017-12-19T04:47:19.526Z,0
2017-12-19T04:48:21.379Z,0
2017-12-19T04:49:23.261Z,0
2017-12-19T04:50:37.386Z,0
2017-12-19T04:51:39.248Z,0
2017-12-19T04:52:41.130Z,0
2017-12-19T04:53:42.989Z,0
2017-12-19T04:54:44.785Z,0
2017-12-19T04:55:46.578Z,0
2017-12-19T04:56:48.461Z,0
2017-12-19T04:57:50.337Z,0
2017-12-19T04:58:52.197Z,0
2017-12-19T05:00:06.328Z,0
2017-12-19T05:01:08.295Z,0
2017-12-19T05:02:10.315Z,0
2017-12-19T05:03:12.280Z,0
2017-12-19T05:04:14.156Z,0
2017-12-19T05:05:16.110Z,0
2017-12-19T05:06:18.094Z,0
2017-12-19T05:07:20.100Z,0
2017-12-19T05:08:22.069Z,0
2017-12-19T05:09:36.426Z,0
2017-12-19T05:10:38.505Z,0
2017-12-19T05:11:40.563Z,0
2017-12-19T05:12:42.639Z,0
2017-12-19T05:13:44.514Z,0
2017-12-19T05:14:46.458Z,0
2017-12-19T05:15:48.439Z,0
2017-12-19T05:16:50.429Z,0
2017-12-19T05:17:52.408Z,0
2017-12-19T05:19:06.716Z,0
2017-12-19T05:20:08.780Z,0
2017-12-19T05:21:10.768Z,0
2017-12-19T05:22:12.647Z,0
2017-12-19T05:23:14.447Z,0
2017-12-19T05:24:16.259Z,0
2017-12-19T05:25:18.121Z,0
2017-12-19T05:26:20.000Z,0
2017-12-19T05:27:21.855Z,0
2017-12-19T05:28:36.034Z,0
2017-12-19T05:29:37.887Z,0
2017-12-19T05:30:39.743Z,0
2017-12-19T05:31:41.605Z,0
2017-12-19T05:32:43.400Z,0
2017-12-19T05:33:45.189Z,0
2017-12-19T05:34:47.056Z,0
2017-12-19T05:35:48.932Z,0
2017-12-19T05:36:50.793Z,0
2017-12-19T05:38:04.987Z,0
2017-12-19T05:39:06.845Z,0
2017-12-19T05:40:08.700Z,0
2017-12-19T05:41:10.592Z,0
2017-12-19T05:42:12.408Z,0
2017-12-19T05:43:14.228Z,0
2017-12-19T05:44:16.117Z,0
2017-12-19T05:45:17.989Z,0
2017-12-19T05:46:19.852Z,0
2017-12-19T05:47:34.038Z,0
2017-12-19T05:48:35.894Z,0
2017-12-19T05:49:37.752Z,0
2017-12-19T05:50:39.632Z,0
2017-12-19T05:51:41.456Z,0
2017-12-19T05:52:43.255Z,0
2017-12-19T05:53:45.137Z,0
2017-12-19T05:54:46.982Z,0
2017-12-19T05:55:48.837Z,0
2017-12-19T05:57:02.985Z,0
2017-12-19T05:58:04.846Z,0
2017-12-19T05:59:06.704Z,0
2017-12-19T06:00:08.563Z,0
2017-12-19T06:01:10.354Z,0
2017-12-19T06:02:12.154Z,0
2017-12-19T06:03:14.031Z,0
2017-12-19T06:04:15.925Z,0
2017-12-19T06:05:17.789Z,0
2017-12-19T06:06:31.934Z,0
2017-12-19T06:07:33.790Z,0
2017-12-19T06:08:35.652Z,0
2017-12-19T06:09:37.538Z,0
2017-12-19T06:10:39.357Z,0
2017-12-19T06:11:41.172Z,0
2017-12-19T06:12:43.029Z,0
2017-12-19T06:13:44.902Z,0
2017-12-19T06:14:46.767Z,0
2017-12-19T06:16:00.910Z,0
2017-12-19T06:17:02.769Z,0
2017-12-19T06:18:04.656Z,0
2017-12-19T06:19:06.539Z,0
2017-12-19T06:20:08.321Z,0
2017-12-19T06:21:10.119Z,0
2017-12-19T06:22:12.000Z,0
2017-12-19T06:23:13.873Z,0
2017-12-19T06:24:15.731Z,0
2017-12-19T06:25:29.856Z,0
2017-12-19T06:26:31.719Z,4
2017-12-19T06:27:33.591Z,4
2017-12-19T06:28:35.449Z,0
2017-12-19T06:29:37.249Z,4
2017-12-19T06:30:39.057Z,4
2017-12-19T06:31:40.917Z,4
2017-12-19T06:32:42.796Z,8
2017-12-19T06:33:44.652Z,8
2017-12-19T06:34:58.779Z,8
2017-12-19T06:36:00.590Z,12
2017-12-19T06:37:02.381Z,12
2017-12-19T06:38:04.170Z,16
2017-12-19T06:39:06.027Z,16
2017-12-19T06:40:07.892Z,20
2017-12-19T06:41:09.753Z,20
2017-12-19T06:42:11.562Z,24
2017-12-19T06:43:13.354Z,28
2017-12-19T06:44:27.547Z,32
2017-12-19T06:45:29.407Z,40
2017-12-19T06:46:31.262Z,48
2017-12-19T06:47:33.118Z,52
2017-12-19T06:48:34.929Z,56
2017-12-19T06:49:36.726Z,64
2017-12-19T06:50:38.607Z,72
2017-12-19T06:51:40.484Z,80
2017-12-19T06:52:42.342Z,88
2017-12-19T06:53:56.474Z,100
2017-12-19T06:54:58.356Z,112
2017-12-19T06:56:00.232Z,124
2017-12-19T06:57:02.088Z,136
2017-12-19T06:58:03.888Z,148
2017-12-19T06:59:05.709Z,164
2017-12-19T07:00:07.560Z,176
2017-12-19T07:01:09.422Z,192
2017-12-19T07:02:11.314Z,212
2017-12-19T07:03:25.483Z,232
2017-12-19T07:04:27.364Z,252
2017-12-19T07:05:29.226Z,276
2017-12-19T07:06:31.088Z,300
2017-12-19T07:07:32.899Z,328
2017-12-19T07:08:34.697Z,352
2017-12-19T07:09:36.559Z,376
2017-12-19T07:10:38.441Z,400
2017-12-19T07:11:40.308Z,424
2017-12-19T07:12:54.458Z,456
2017-12-19T07:13:56.342Z,480
2017-12-19T07:14:58.223Z,508
2017-12-19T07:16:00.110Z,544
2017-12-19T07:17:01.928Z,556
2017-12-19T07:18:03.748Z,588
2017-12-19T07:19:05.628Z,632
2017-12-19T07:20:07.483Z,660
2017-12-19T07:21:09.349Z,684
2017-12-19T07:22:23.495Z,712
2017-12-19T07:23:25.359Z,760
2017-12-19T07:24:27.215Z,804
2017-12-19T07:25:29.102Z,832
2017-12-19T07:26:30.917Z,860
2017-12-19T07:27:32.712Z,916
2017-12-19T07:28:34.579Z,948
2017-12-19T07:29:36.437Z,972
2017-12-19T07:30:38.298Z,992
2017-12-19T07:31:52.424Z,1048
2017-12-19T07:32:54.306Z,1092
2017-12-19T07:33:56.190Z,1128
2017-12-19T07:34:58.075Z,1128
2017-12-19T07:35:59.875Z,1148
2017-12-19T07:37:01.696Z,1172
2017-12-19T07:38:03.557Z,1224
2017-12-19T07:39:05.444Z,1272
2017-12-19T07:40:07.307Z,1272
2017-12-19T07:41:21.434Z,1328
2017-12-19T07:42:23.318Z,1376
2017-12-19T07:43:25.200Z,1416
2017-12-19T07:44:27.086Z,1444
2017-12-19T07:45:28.893Z,1480
2017-12-19T07:46:30.704Z,1488
2017-12-19T07:47:32.568Z,1492
2017-12-19T07:48:34.446Z,1504
2017-12-19T07:49:36.313Z,1528
2017-12-19T07:50:50.437Z,1568
2017-12-19T07:51:52.301Z,1588
2017-12-19T07:52:54.160Z,1664
2017-12-19T07:53:56.024Z,1784
2017-12-19T07:54:57.838Z,1852
2017-12-19T07:55:59.642Z,1828
2017-12-19T07:57:01.528Z,1756
2017-12-19T07:58:03.387Z,1768
2017-12-19T07:59:05.271Z,1816
2017-12-19T08:00:19.422Z,1840
2017-12-19T08:01:21.280Z,1860
2017-12-19T08:02:23.141Z,1900
2017-12-19T08:03:25.003Z,1852
2017-12-19T08:04:26.803Z,1820
2017-12-19T08:05:28.668Z,1900
2017-12-19T08:06:30.498Z,2008
2017-12-19T08:07:32.360Z,2044
2017-12-19T08:08:34.224Z,2088
2017-12-19T08:09:48.355Z,2212
2017-12-19T08:10:50.232Z,2284
2017-12-19T08:11:52.097Z,2296
2017-12-19T08:12:53.965Z,2324
2017-12-19T08:13:55.784Z,2412
2017-12-19T08:14:57.602Z,2436
2017-12-19T08:15:59.468Z,2476
2017-12-19T08:17:01.332Z,2660
2017-12-19T08:18:03.190Z,2608
2017-12-19T08:19:17.324Z,2640
2017-12-19T08:20:19.201Z,2692
2017-12-19T08:21:21.069Z,2780
2017-12-19T08:22:22.938Z,2784
2017-12-19T08:23:24.758Z,2840
2017-12-19T08:24:26.581Z,2900
2017-12-19T08:25:28.467Z,2880
2017-12-19T08:26:30.351Z,2976
2017-12-19T08:27:32.219Z,3096
2017-12-19T08:28:46.376Z,3284
2017-12-19T08:29:48.241Z,3400
2017-12-19T08:30:50.098Z,3396
2017-12-19T08:31:51.962Z,3480
2017-12-19T08:32:53.766Z,3672
2017-12-19T08:33:55.566Z,3684
2017-12-19T08:34:57.450Z,3596
2017-12-19T08:35:59.323Z,3628
2017-12-19T08:37:01.211Z,3800
2017-12-19T08:38:15.351Z,4024
2017-12-19T08:39:17.211Z,4252
2017-12-19T08:40:19.098Z,4112
2017-12-19T08:41:20.982Z,3956
2017-12-19T08:42:22.791Z,3868
2017-12-19T08:43:24.613Z,3748
2017-12-19T08:44:26.499Z,3720
2017-12-19T08:45:28.366Z,3708
2017-12-19T08:46:30.229Z,3772
2017-12-19T08:47:44.366Z,3796
2017-12-19T08:48:46.227Z,3760
2017-12-19T08:49:48.091Z,3692
2017-12-19T08:50:49.958Z,3720
2017-12-19T08:51:51.776Z,3760
2017-12-19T08:52:53.577Z,3732
2017-12-19T08:53:55.439Z,3616
2017-12-19T08:54:57.307Z,3536
2017-12-19T08:55:59.153Z,3632
2017-12-19T08:57:13.310Z,3804
2017-12-19T08:58:15.192Z,3900
2017-12-19T08:59:17.078Z,3668
2017-12-19T09:00:19.027Z,3600
2017-12-19T09:01:20.835Z,4020
2017-12-19T09:02:22.640Z,4188
2017-12-19T09:03:24.502Z,4060
2017-12-19T09:04:26.362Z,4132
2017-12-19T09:05:28.233Z,4020
2017-12-19T09:06:42.388Z,4064
2017-12-19T09:07:44.243Z,4212
2017-12-19T09:08:46.107Z,4348
2017-12-19T09:09:47.973Z,4244
2017-12-19T09:10:49.793Z,4216
2017-12-19T09:11:51.613Z,4420
2017-12-19T09:12:53.487Z,4772
2017-12-19T09:13:55.371Z,4900
2017-12-19T09:14:57.257Z,5048
2017-12-19T09:16:11.393Z,5008
2017-12-19T09:17:13.276Z,4736
2017-12-19T09:18:15.160Z,5620
2017-12-19T09:19:17.028Z,5916
2017-12-19T09:20:18.827Z,6048
2017-12-19T09:21:20.637Z,5908
2017-12-19T09:22:22.523Z,5996
2017-12-19T09:23:24.410Z,6268
2017-12-19T09:24:26.295Z,6220
2017-12-19T09:25:40.430Z,6036
2017-12-19T09:26:42.316Z,6112
2017-12-19T09:27:44.202Z,6184
2017-12-19T09:28:46.071Z,6008
2017-12-19T09:29:47.896Z,5832
2017-12-19T09:30:49.720Z,5720
2017-12-19T09:31:51.606Z,5340
2017-12-19T09:32:53.468Z,5132
2017-12-19T09:33:55.333Z,4704
2017-12-19T09:35:09.466Z,4452
2017-12-19T09:36:11.328Z,4336
2017-12-19T09:37:13.190Z,4516
2017-12-19T09:38:15.055Z,4468
2017-12-19T09:39:16.877Z,4944
2017-12-19T09:40:18.682Z,5096
2017-12-19T09:41:20.563Z,4548
2017-12-19T09:42:22.432Z,4748
2017-12-19T09:43:24.325Z,5144
2017-12-19T09:44:38.476Z,5548
2017-12-19T09:45:40.355Z,5516
2017-12-19T09:46:42.226Z,5060
2017-12-19T09:47:44.089Z,4952
2017-12-19T09:48:45.912Z,4604
2017-12-19T09:49:47.732Z,5256
2017-12-19T09:50:49.601Z,5216
2017-12-19T09:51:51.488Z,4548
2017-12-19T09:52:53.353Z,4684
2017-12-19T09:54:07.511Z,4716
2017-12-19T09:55:09.374Z,3768
2017-12-19T09:56:11.284Z,3360
2017-12-19T09:57:13.130Z,3644
2017-12-19T09:58:14.949Z,3712
2017-12-19T09:59:16.746Z,3132
2017-12-19T10:00:18.615Z,3176
2017-12-19T10:01:20.502Z,3864
2017-12-19T10:02:22.372Z,4636
2017-12-19T10:03:36.497Z,5172
2017-12-19T10:04:38.365Z,5344
2017-12-19T10:05:40.247Z,5388
2017-12-19T10:06:42.117Z,5696
2017-12-19T10:07:43.915Z,5716
2017-12-19T10:08:45.739Z,5776
2017-12-19T10:09:47.602Z,6108
2017-12-19T10:10:49.487Z,5964
2017-12-19T10:11:51.360Z,5540
2017-12-19T10:13:05.567Z,5596
2017-12-19T10:14:07.448Z,6012
2017-12-19T10:15:09.336Z,6664
2017-12-19T10:16:11.225Z,6672
2017-12-19T10:17:13.048Z,6816
2017-12-19T10:18:14.851Z,6816
2017-12-19T10:19:16.739Z,6608
2017-12-19T10:20:18.603Z,6656
2017-12-19T10:21:20.470Z,7204
2017-12-19T10:22:34.631Z,7904
2017-12-19T10:23:36.490Z,8584
2017-12-19T10:24:38.348Z,8892
2017-12-19T10:25:40.210Z,8644
2017-12-19T10:26:42.010Z,9448
2017-12-19T10:27:43.809Z,9496
2017-12-19T10:28:45.680Z,9260
2017-12-19T10:29:47.560Z,8340
2017-12-19T10:30:49.430Z,8468
2017-12-19T10:32:03.565Z,8384
2017-12-19T10:33:05.446Z,7868
2017-12-19T10:34:07.317Z,7616
2017-12-19T10:35:09.204Z,7348
2017-12-19T10:36:11.009Z,7204
2017-12-19T10:37:12.835Z,6956
2017-12-19T10:38:14.702Z,6980
2017-12-19T10:39:16.592Z,6760
2017-12-19T10:40:18.483Z,6792
2017-12-19T10:41:32.638Z,6956
2017-12-19T10:42:34.523Z,6808
2017-12-19T10:43:36.412Z,6876
2017-12-19T10:44:38.275Z,6700
2017-12-19T10:45:40.080Z,6544
2017-12-19T10:46:41.908Z,6028
2017-12-19T10:47:43.776Z,5772
2017-12-19T10:48:45.666Z,6012
2017-12-19T10:49:47.533Z,5488
2017-12-19T10:51:01.668Z,4868
2017-12-19T10:52:03.554Z,4676
2017-12-19T10:53:05.423Z,4752
2017-12-19T10:54:07.311Z,5212
2017-12-19T10:55:09.108Z,5968
2017-12-19T10:56:10.917Z,6420
2017-12-19T10:57:12.802Z,6268
2017-12-19T10:58:14.670Z,5896
2017-12-19T10:59:16.556Z,5748
2017-12-19T11:00:30.689Z,4888
2017-12-19T11:01:32.555Z,4660
2017-12-19T11:02:34.444Z,5132
2017-12-19T11:03:36.337Z,5588
2017-12-19T11:04:38.158Z,5720
2017-12-19T11:05:39.960Z,6512
2017-12-19T11:06:41.850Z,5864
2017-12-19T11:07:43.709Z,5052
2017-12-19T11:08:45.582Z,4508
2017-12-19T11:09:59.736Z,4676
2017-12-19T11:11:01.601Z,5024
2017-12-19T11:12:03.489Z,5056
2017-12-19T11:13:05.382Z,5104
2017-12-19T11:14:07.204Z,5188
2017-12-19T11:15:09.000Z,5824
2017-12-19T11:16:10.870Z,6336
2017-12-19T11:17:12.731Z,6156
2017-12-19T11:18:14.602Z,6300
2017-12-19T11:19:28.733Z,6216
2017-12-19T11:20:30.668Z,6188
2017-12-19T11:21:32.501Z,5260
2017-12-19T11:22:34.386Z,5288
2017-12-19T11:23:36.188Z,6204
2017-12-19T11:24:38.009Z,6804
2017-12-19T11:25:39.918Z,6308
2017-12-19T11:26:41.806Z,6268
2017-12-19T11:27:43.669Z,6324
2017-12-19T11:28:57.858Z,5716
2017-12-19T11:29:59.769Z,5312
2017-12-19T11:31:01.633Z,4692
2017-12-19T11:32:03.535Z,4044
2017-12-19T11:33:05.357Z,3732
2017-12-19T11:34:07.187Z,3332
2017-12-19T11:35:09.069Z,3128
2017-12-19T11:36:10.937Z,3000
2017-12-19T11:37:12.802Z,3008
2017-12-19T11:38:26.999Z,2904
2017-12-19T11:39:28.862Z,2836
2017-12-19T11:40:30.749Z,2540
2017-12-19T11:41:32.618Z,2508
2017-12-19T11:42:34.430Z,2596
2017-12-19T11:43:36.250Z,2564
2017-12-19T11:44:38.123Z,2664
2017-12-19T11:45:40.106Z,3188
2017-12-19T11:46:42.047Z,4492
2017-12-19T11:47:56.205Z,4524
2017-12-19T11:48:58.069Z,5040
2017-12-19T11:49:59.971Z,4840
2017-12-19T11:51:01.877Z,4408
2017-12-19T11:52:03.675Z,4236
2017-12-19T11:53:05.505Z,4428
2017-12-19T11:54:07.401Z,4612
2017-12-19T11:55:09.283Z,4864
2017-12-19T11:56:11.171Z,4664
2017-12-19T11:57:25.305Z,4456
2017-12-19T11:58:27.216Z,4976
2017-12-19T11:59:29.084Z,5356
2017-12-19T12:00:30.949Z,5480
2017-12-19T12:01:32.773Z,5400
2017-12-19T12:02:34.636Z,5112
2017-12-19T12:03:36.523Z,5096
2017-12-19T12:04:38.414Z,4856
2017-12-19T12:05:40.285Z,4412
2017-12-19T12:06:54.432Z,4388
2017-12-19T12:07:56.316Z,4712
2017-12-19T12:08:58.230Z,4860
2017-12-19T12:10:00.096Z,4608
2017-12-19T12:11:01.920Z,4592
2017-12-19T12:12:03.739Z,4672
2017-12-19T12:13:05.614Z,4832
2017-12-19T12:14:07.543Z,5116
2017-12-19T12:15:09.638Z,5268
2017-12-19T12:16:23.788Z,4880
2017-12-19T12:17:25.673Z,4456
2017-12-19T12:18:27.538Z,4024
2017-12-19T12:19:29.404Z,3984
2017-12-19T12:20:31.234Z,4388
2017-12-19T12:21:33.045Z,4740
2017-12-19T12:22:34.965Z,4844
2017-12-19T12:23:36.848Z,5116
2017-12-19T12:24:38.732Z,5260
2017-12-19T12:25:52.921Z,4992
2017-12-19T12:26:54.803Z,4784
2017-12-19T12:27:56.667Z,4624
2017-12-19T12:28:58.535Z,4560
2017-12-19T12:30:00.361Z,4708
2017-12-19T12:31:02.156Z,4956
2017-12-19T12:32:04.022Z,5204
2017-12-19T12:33:05.905Z,5392
2017-12-19T12:34:07.771Z,5424
2017-12-19T12:35:21.982Z,5316
2017-12-19T12:36:23.851Z,5248
2017-12-19T12:37:25.766Z,5024
2017-12-19T12:38:27.636Z,4872
2017-12-19T12:39:29.460Z,4896
2017-12-19T12:40:31.258Z,5188
2017-12-19T12:41:33.125Z,5444
2017-12-19T12:42:35.013Z,5588
2017-12-19T12:43:36.902Z,5576
2017-12-19T12:44:51.057Z,5688
2017-12-19T12:45:52.949Z,5840
2017-12-19T12:46:54.810Z,5680
2017-12-19T12:47:56.671Z,5356
2017-12-19T12:48:58.471Z,5144
2017-12-19T12:50:00.339Z,5004
2017-12-19T12:51:02.204Z,4736
2017-12-19T12:52:04.085Z,4272
2017-12-19T12:53:05.960Z,3848
2017-12-19T12:54:20.133Z,3340
2017-12-19T12:55:22.023Z,3236
2017-12-19T12:56:23.888Z,3332
2017-12-19T12:57:25.755Z,3340
2017-12-19T12:58:27.574Z,3208
2017-12-19T12:59:29.380Z,3148
2017-12-19T13:00:31.258Z,2924
2017-12-19T13:01:33.146Z,2860
2017-12-19T13:02:35.015Z,2840
2017-12-19T13:03:49.167Z,3060
2017-12-19T13:04:51.029Z,3344
2017-12-19T13:05:52.916Z,3524
2017-12-19T13:06:54.828Z,3900
2017-12-19T13:07:56.642Z,4072
2017-12-19T13:08:58.462Z,4572
2017-12-19T13:10:00.273Z,5340
2017-12-19T13:11:02.100Z,5596
2017-12-19T13:12:03.953Z,5288
2017-12-19T13:13:18.126Z,4540
2017-12-19T13:14:20.060Z,4096
2017-12-19T13:15:21.948Z,4188
2017-12-19T13:16:23.813Z,4276
2017-12-19T13:17:25.634Z,3972
2017-12-19T13:18:27.445Z,4060
2017-12-19T13:19:29.316Z,4268
2017-12-19T13:20:31.190Z,4156
2017-12-19T13:21:33.052Z,3968
2017-12-19T13:22:47.207Z,3580
2017-12-19T13:23:49.091Z,3592
2017-12-19T13:24:50.956Z,3696
2017-12-19T13:25:52.822Z,3576
2017-12-19T13:26:54.625Z,3488
2017-12-19T13:27:56.456Z,3548
2017-12-19T13:28:58.418Z,3572
2017-12-19T13:30:00.314Z,3444
2017-12-19T13:31:02.181Z,3332
2017-12-19T13:32:16.324Z,3084
2017-12-19T13:33:18.217Z,3064
2017-12-19T13:34:20.077Z,3184
2017-12-19T13:35:21.962Z,3260
2017-12-19T13:36:23.761Z,3332
2017-12-19T13:37:25.571Z,3384
2017-12-19T13:38:27.414Z,3600
2017-12-19T13:39:29.330Z,3588
2017-12-19T13:40:31.409Z,3284
2017-12-19T13:41:45.601Z,2852
2017-12-19T13:42:47.464Z,2692
2017-12-19T13:43:49.327Z,2556
2017-12-19T13:44:51.218Z,2540
2017-12-19T13:45:53.017Z,2644
2017-12-19T13:46:54.844Z,2748
2017-12-19T13:47:56.729Z,2920
2017-12-19T13:48:58.596Z,3048
2017-12-19T13:50:00.484Z,2888
2017-12-19T13:51:14.686Z,2444
2017-12-19T13:52:16.554Z,2264
2017-12-19T13:53:18.436Z,2208
2017-12-19T13:54:20.303Z,2176
2017-12-19T13:55:22.124Z,2268
2017-12-19T13:56:23.924Z,2220
2017-12-19T13:57:25.788Z,2020
2017-12-19T13:58:27.677Z,1908
2017-12-19T13:59:29.561Z,1888
2017-12-19T14:00:43.745Z,1848
2017-12-19T14:01:45.631Z,1828
2017-12-19T14:02:47.513Z,1796
2017-12-19T14:03:49.373Z,1780
2017-12-19T14:04:51.177Z,1744
2017-12-19T14:05:52.998Z,1692
2017-12-19T14:06:54.861Z,1656
2017-12-19T14:07:56.725Z,1632
2017-12-19T14:08:58.593Z,1612
2017-12-19T14:10:12.721Z,1520
2017-12-19T14:11:14.583Z,1452
2017-12-19T14:12:16.444Z,1384
2017-12-19T14:13:18.331Z,1308
2017-12-19T14:14:20.153Z,1272
2017-12-19T14:15:21.953Z,1284
2017-12-19T14:16:23.845Z,1288
2017-12-19T14:17:25.756Z,1284
2017-12-19T14:18:27.592Z,1260
2017-12-19T14:19:41.740Z,1216
2017-12-19T14:20:43.599Z,1192
2017-12-19T14:21:45.462Z,1176
2017-12-19T14:22:47.328Z,1140
2017-12-19T14:23:49.152Z,1092
2017-12-19T14:24:50.974Z,1060
2017-12-19T14:25:52.857Z,1048
2017-12-19T14:26:54.948Z,1036
2017-12-19T14:27:56.813Z,1008
2017-12-19T14:29:11.016Z,972
2017-12-19T14:30:12.899Z,952
2017-12-19T14:31:14.780Z,928
2017-12-19T14:32:16.643Z,896
2017-12-19T14:33:18.467Z,844
2017-12-19T14:34:20.291Z,828
2017-12-19T14:35:22.168Z,800
2017-12-19T14:36:24.037Z,764
2017-12-19T14:37:25.923Z,740
2017-12-19T14:38:40.075Z,692
2017-12-19T14:39:41.957Z,652
2017-12-19T14:40:43.821Z,600
2017-12-19T14:41:45.710Z,556
2017-12-19T14:42:47.504Z,504
2017-12-19T14:43:49.370Z,460